Terminal Aerodrome Forecast
Issued by NWS

Home | Current Version | Previous Version | Text Only | Print | Product List | Glossary On
Versions: 1 2 3 4 5 6 7 8 9 10 11 12 13 14 15 16 17
000
FTUS41 KGYX 252330
TAFRKD
TAF
KRKD 252330Z 2600/2624 29013G20KT P6SM SCT250
     FM260300 30008KT P6SM BKN250
     FM261400 03008KT P6SM SCT120 OVC200
     FM261800 06009KT P6SM FEW050 SCT100 OVC200
      AMD LTD TO CLD VIS AND WIND=

USA.gov is the U.S. government's official web portal to all federal, state and local government web resources and services.